createdAt,value
2019-05-05T00:00:47.637Z,937.43
2019-05-05T00:01:47.629Z,937.46
2019-05-05T00:02:47.628Z,937.48
2019-05-05T00:03:47.870Z,937.45
2019-05-05T00:04:47.616Z,937.49
2019-05-05T00:05:47.608Z,937.57
2019-05-05T00:06:47.611Z,937.57
2019-05-05T00:07:47.610Z,937.60
2019-05-05T00:08:47.567Z,937.59
2019-05-05T00:09:47.839Z,937.62
2019-05-05T00:10:47.568Z,937.59
2019-05-05T00:11:47.572Z,937.59
2019-05-05T00:12:47.563Z,937.60
2019-05-05T00:13:47.559Z,937.57
2019-05-05T00:14:47.540Z,937.58
2019-05-05T00:15:47.940Z,937.60
2019-05-05T00:16:47.538Z,937.58
2019-05-05T00:17:47.529Z,937.55
2019-05-05T00:18:47.524Z,937.56
2019-05-05T00:19:47.524Z,937.59
2019-05-05T00:20:47.515Z,937.57
2019-05-05T00:21:47.781Z,937.52
2019-05-05T00:22:47.542Z,937.58
2019-05-05T00:23:47.512Z,937.58
2019-05-05T00:24:47.486Z,937.58
2019-05-05T00:25:47.484Z,937.55
2019-05-05T00:26:47.482Z,937.57
2019-05-05T00:27:47.760Z,937.58
2019-05-05T00:28:47.469Z,937.58
2019-05-05T00:29:47.461Z,937.57
2019-05-05T00:30:47.452Z,937.60
2019-05-05T00:31:47.477Z,937.60
2019-05-05T00:32:47.419Z,937.66
2019-05-05T00:33:47.686Z,937.65
2019-05-05T00:34:47.404Z,937.67
2019-05-05T00:35:47.414Z,937.68
2019-05-05T00:36:47.421Z,937.65
2019-05-05T00:37:47.409Z,937.62
2019-05-05T00:38:47.385Z,937.63
2019-05-05T00:39:47.589Z,937.62
2019-05-05T00:40:47.400Z,937.57
2019-05-05T00:41:47.387Z,937.58
2019-05-05T00:42:47.377Z,937.58
2019-05-05T00:43:47.368Z,937.59
2019-05-05T00:44:47.652Z,937.59
2019-05-05T00:45:47.360Z,937.61
2019-05-05T00:46:47.325Z,937.62
2019-05-05T00:47:47.325Z,937.61
2019-05-05T00:48:47.321Z,937.62
2019-05-05T00:49:49.442Z,937.64
2019-05-05T00:50:47.309Z,937.64
2019-05-05T00:51:47.307Z,937.64
2019-05-05T00:52:47.299Z,937.61
2019-05-05T00:53:47.290Z,937.64
2019-05-05T00:54:47.596Z,937.58
2019-05-05T00:55:47.315Z,937.60
2019-05-05T00:56:47.281Z,937.64
2019-05-05T00:57:47.259Z,937.62
2019-05-05T00:58:47.243Z,937.66
2019-05-05T00:59:47.585Z,937.65
2019-05-05T01:00:47.248Z,937.67
2019-05-05T01:01:47.284Z,937.67
2019-05-05T01:02:47.234Z,937.64
2019-05-05T01:03:47.240Z,937.67
2019-05-05T01:04:47.533Z,937.61
2019-05-05T01:05:47.221Z,937.62
2019-05-05T01:06:47.253Z,937.62
2019-05-05T01:07:47.186Z,937.65
2019-05-05T01:08:47.214Z,937.60
2019-05-05T01:09:47.330Z,937.66
2019-05-05T01:10:47.190Z,937.66
2019-05-05T01:11:47.172Z,937.66
2019-05-05T01:12:47.212Z,937.68
2019-05-05T01:13:47.666Z,937.65
2019-05-05T01:14:47.161Z,937.68
2019-05-05T01:15:47.166Z,937.68
2019-05-05T01:16:47.146Z,937.68
2019-05-05T01:17:47.179Z,937.70
2019-05-05T01:18:47.387Z,937.68
2019-05-05T01:20:00.256Z,937.65
2019-05-05T01:20:47.098Z,937.66
2019-05-05T01:21:47.125Z,937.65
2019-05-05T01:22:47.100Z,937.62
2019-05-05T01:23:47.408Z,937.63
2019-05-05T01:24:47.105Z,937.63
2019-05-05T01:25:48.734Z,937.64
2019-05-05T01:26:47.091Z,937.64
2019-05-05T01:27:47.101Z,937.64
2019-05-05T01:28:47.418Z,937.68
2019-05-05T01:29:47.057Z,937.69
2019-05-05T01:30:47.045Z,937.67
2019-05-05T01:31:47.050Z,937.70
2019-05-05T01:32:47.019Z,937.72
2019-05-05T01:33:47.050Z,937.74
2019-05-05T01:34:47.325Z,937.73
2019-05-05T01:35:47.020Z,937.68
2019-05-05T01:36:47.014Z,937.70
2019-05-05T01:37:46.985Z,937.67
2019-05-05T01:38:46.999Z,937.68
2019-05-05T01:39:46.996Z,937.67
2019-05-05T01:40:47.320Z,937.66
2019-05-05T01:41:46.980Z,937.65
2019-05-05T01:42:46.976Z,937.67
2019-05-05T01:43:46.980Z,937.65
2019-05-05T01:44:46.975Z,937.64
2019-05-05T01:45:47.342Z,937.61
2019-05-05T01:46:46.930Z,937.65
2019-05-05T01:47:46.948Z,937.62
2019-05-05T01:48:46.928Z,937.62
2019-05-05T01:49:46.931Z,937.61
2019-05-05T01:50:46.903Z,937.59
2019-05-05T01:51:47.402Z,937.59
2019-05-05T01:52:46.904Z,937.55
2019-05-05T01:53:46.892Z,937.56
2019-05-05T01:54:46.909Z,937.56
2019-05-05T01:55:46.883Z,937.55
2019-05-05T01:56:47.314Z,937.51
2019-05-05T01:57:46.854Z,937.49
2019-05-05T01:58:46.905Z,937.49
2019-05-05T01:59:46.852Z,937.46
2019-05-05T02:00:46.851Z,937.45
2019-05-05T02:01:46.847Z,937.46
2019-05-05T02:02:47.136Z,937.41
2019-05-05T02:03:46.826Z,937.39
2019-05-05T02:04:46.822Z,937.39
2019-05-05T02:05:46.828Z,937.38
2019-05-05T02:06:46.814Z,937.40
2019-05-05T02:07:47.311Z,937.36
2019-05-05T02:08:46.833Z,937.35
2019-05-05T02:09:46.781Z,937.37
2019-05-05T02:10:46.775Z,937.34
2019-05-05T02:11:46.778Z,937.36
2019-05-05T02:12:46.790Z,937.36
2019-05-05T02:13:47.238Z,937.36
2019-05-05T02:14:46.770Z,937.37
2019-05-05T02:15:46.742Z,937.40
2019-05-05T02:16:46.769Z,937.39
2019-05-05T02:17:46.723Z,937.42
2019-05-05T02:18:46.740Z,937.43
2019-05-05T02:19:47.010Z,937.44
2019-05-05T02:20:46.714Z,937.42
2019-05-05T02:21:46.745Z,937.43
2019-05-05T02:22:46.678Z,937.44
2019-05-05T02:23:46.694Z,937.41
2019-05-05T02:24:46.677Z,937.38
2019-05-05T02:25:47.285Z,937.39
2019-05-05T02:26:46.662Z,937.38
2019-05-05T02:27:46.661Z,937.33
2019-05-05T02:28:46.627Z,937.30
2019-05-05T02:29:46.648Z,937.33
2019-05-05T02:30:46.722Z,937.34
2019-05-05T02:31:47.229Z,937.39
2019-05-05T02:32:46.631Z,937.36
2019-05-05T02:33:46.669Z,937.36
2019-05-05T02:34:46.603Z,937.35
2019-05-05T02:35:46.641Z,937.34
2019-05-05T02:36:46.588Z,937.34
2019-05-05T02:37:46.889Z,937.32
2019-05-05T02:38:46.637Z,937.37
2019-05-05T02:39:57.937Z,937.34
2019-05-05T02:40:46.569Z,937.37
2019-05-05T02:41:46.575Z,937.33
2019-05-05T02:42:46.561Z,937.33
2019-05-05T02:43:47.087Z,937.35
2019-05-05T02:44:46.561Z,937.32
2019-05-05T02:45:46.516Z,937.37
2019-05-05T02:46:46.540Z,937.31
2019-05-05T02:47:46.568Z,937.32
2019-05-05T02:48:46.526Z,937.36
2019-05-05T02:49:46.810Z,937.32
2019-05-05T02:50:54.912Z,937.34
2019-05-05T02:51:46.510Z,937.35
2019-05-05T02:52:46.485Z,937.39
2019-05-05T02:53:46.489Z,937.38
2019-05-05T02:54:46.460Z,937.36
2019-05-05T02:55:46.950Z,937.40
2019-05-05T02:56:46.480Z,937.39
2019-05-05T02:57:46.484Z,937.39
2019-05-05T02:58:46.459Z,937.39
2019-05-05T02:59:46.480Z,937.43
2019-05-05T03:00:46.421Z,937.43
2019-05-05T03:01:46.738Z,937.42
2019-05-05T03:02:46.425Z,937.43
2019-05-05T03:03:46.408Z,937.44
2019-05-05T03:04:46.407Z,937.46
2019-05-05T03:05:46.383Z,937.45
2019-05-05T03:06:46.850Z,937.46
2019-05-05T03:07:46.362Z,937.47
2019-05-05T03:08:46.371Z,937.51
2019-05-05T03:09:46.365Z,937.53
2019-05-05T03:10:46.357Z,937.51
2019-05-05T03:11:46.346Z,937.53
2019-05-05T03:12:46.946Z,937.50
2019-05-05T03:13:46.327Z,937.48
2019-05-05T03:14:46.339Z,937.48
2019-05-05T03:15:46.339Z,937.48
2019-05-05T03:16:46.309Z,937.46
2019-05-05T03:17:46.315Z,937.47
2019-05-05T03:18:46.590Z,937.42
2019-05-05T03:19:46.300Z,937.37
2019-05-05T03:20:46.302Z,937.35
2019-05-05T03:21:46.261Z,937.36
2019-05-05T03:22:46.276Z,937.30
2019-05-05T03:23:46.251Z,937.25
2019-05-05T03:24:46.608Z,937.21
2019-05-05T03:25:46.254Z,937.17
2019-05-05T03:26:46.230Z,937.14
2019-05-05T03:27:46.240Z,937.15
2019-05-05T03:28:46.219Z,937.13
2019-05-05T03:29:46.769Z,937.11
2019-05-05T03:30:46.196Z,937.09
2019-05-05T03:31:46.258Z,937.07
2019-05-05T03:32:46.234Z,937.07
2019-05-05T03:33:46.305Z,937.00
2019-05-05T03:34:46.184Z,937.00
2019-05-05T03:35:46.491Z,936.97
2019-05-05T03:36:46.154Z,936.94
2019-05-05T03:37:46.152Z,936.94
2019-05-05T03:38:46.137Z,936.91
2019-05-05T03:39:46.141Z,936.91
2019-05-05T03:40:46.725Z,936.87
2019-05-05T03:41:46.135Z,936.90
2019-05-05T03:42:46.123Z,936.88
2019-05-05T03:43:46.093Z,936.87
2019-05-05T03:44:46.118Z,936.86
2019-05-05T03:45:46.118Z,936.85
2019-05-05T03:46:46.392Z,936.84
2019-05-05T03:47:46.086Z,936.83
2019-05-05T03:48:46.075Z,936.80
2019-05-05T03:49:46.077Z,936.78
2019-05-05T03:50:46.102Z,936.76
2019-05-05T03:51:46.270Z,936.81
2019-05-05T03:52:46.054Z,936.78
2019-05-05T03:53:46.045Z,936.78
2019-05-05T03:54:46.036Z,936.78
2019-05-05T03:55:46.064Z,936.79
2019-05-05T03:56:46.669Z,936.76
2019-05-05T03:57:46.020Z,936.77
2019-05-05T03:58:46.002Z,936.78
2019-05-05T03:59:46.003Z,936.73
2019-05-05T04:00:45.989Z,936.71
2019-05-05T04:01:46.044Z,936.69
2019-05-05T04:02:46.286Z,936.68
2019-05-05T04:03:45.951Z,936.67
2019-05-05T04:04:45.978Z,936.65
2019-05-05T04:05:45.942Z,936.63
2019-05-05T04:06:45.947Z,936.63
2019-05-05T04:07:46.457Z,936.64
2019-05-05T04:08:45.947Z,936.63
2019-05-05T04:09:45.925Z,936.63
2019-05-05T04:10:45.926Z,936.58
2019-05-05T04:11:45.927Z,936.56
2019-05-05T04:12:45.956Z,936.55
2019-05-05T04:13:46.732Z,936.53
2019-05-05T04:14:45.912Z,936.54
2019-05-05T04:15:45.881Z,936.53
2019-05-05T04:16:45.870Z,936.48
2019-05-05T04:17:45.840Z,936.48
2019-05-05T04:18:45.895Z,936.47
2019-05-05T04:19:46.402Z,936.50
2019-05-05T04:20:45.842Z,936.43
2019-05-05T04:21:45.832Z,936.46
2019-05-05T04:22:45.820Z,936.47
2019-05-05T04:23:45.806Z,936.46
2019-05-05T04:24:45.844Z,936.48
2019-05-05T04:25:46.416Z,936.45
2019-05-05T04:26:45.785Z,936.48
2019-05-05T04:27:45.770Z,936.43
2019-05-05T04:28:45.792Z,936.45
2019-05-05T04:29:45.753Z,936.47
2019-05-05T04:30:45.767Z,936.46
2019-05-05T04:31:46.477Z,936.46
2019-05-05T04:32:45.797Z,936.45
2019-05-05T04:33:45.755Z,936.47
2019-05-05T04:34:45.781Z,936.47
2019-05-05T04:35:45.747Z,936.47
2019-05-05T04:36:45.700Z,936.48
2019-05-05T04:37:46.407Z,936.45
2019-05-05T04:38:45.701Z,936.45
2019-05-05T04:39:45.692Z,936.46
2019-05-05T04:40:45.705Z,936.46
2019-05-05T04:41:45.704Z,936.41
2019-05-05T04:42:45.663Z,936.45
2019-05-05T04:43:46.224Z,936.42
2019-05-05T04:44:45.647Z,936.44
2019-05-05T04:45:45.638Z,936.41
2019-05-05T04:46:45.645Z,936.41
2019-05-05T04:47:45.678Z,936.41
2019-05-05T04:48:45.689Z,936.40
2019-05-05T04:49:45.980Z,936.35
2019-05-05T04:50:45.604Z,936.37
2019-05-05T04:51:50.036Z,936.34
2019-05-05T04:52:45.594Z,936.35
2019-05-05T04:53:45.585Z,936.34
2019-05-05T04:54:45.577Z,936.33
2019-05-05T04:55:45.932Z,936.29
2019-05-05T04:56:45.560Z,936.26
2019-05-05T04:57:45.577Z,936.28
2019-05-05T04:58:45.568Z,936.24
2019-05-05T04:59:45.617Z,936.22
2019-05-05T05:00:45.529Z,936.21
2019-05-05T05:01:45.840Z,936.17
2019-05-05T05:02:45.533Z,936.17
2019-05-05T05:03:45.505Z,936.17
2019-05-05T05:04:45.507Z,936.13
2019-05-05T05:05:45.544Z,936.13
2019-05-05T05:06:45.510Z,936.13
2019-05-05T05:07:45.689Z,936.16
2019-05-05T05:08:45.500Z,936.10
2019-05-05T05:09:45.468Z,936.15
2019-05-05T05:10:45.474Z,936.10
2019-05-05T05:11:45.441Z,936.12
2019-05-05T05:12:45.823Z,936.07
2019-05-05T05:13:45.425Z,936.06
2019-05-05T05:14:45.443Z,936.05
2019-05-05T05:15:45.428Z,936.05
2019-05-05T05:16:45.418Z,936.06
2019-05-05T05:17:45.419Z,936.02
2019-05-05T05:18:45.617Z,936.02
2019-05-05T05:19:45.437Z,936.01
2019-05-05T05:20:45.360Z,936.01
2019-05-05T05:21:57.596Z,935.97
2019-05-05T05:22:45.377Z,935.97
2019-05-05T05:23:45.823Z,935.95
2019-05-05T05:24:45.379Z,936.02
2019-05-05T05:25:45.384Z,935.95
2019-05-05T05:26:45.362Z,935.96
2019-05-05T05:27:45.352Z,935.95
2019-05-05T05:28:45.319Z,935.96
2019-05-05T05:29:45.813Z,935.96
2019-05-05T05:30:45.316Z,935.97
2019-05-05T05:31:45.290Z,935.91
2019-05-05T05:32:45.349Z,935.93
2019-05-05T05:33:45.278Z,935.92
2019-05-05T05:34:45.522Z,935.91
2019-05-05T05:35:45.275Z,935.90
2019-05-05T05:36:45.271Z,935.92
2019-05-05T05:37:45.245Z,935.89
2019-05-05T05:38:45.253Z,935.91
2019-05-05T05:39:45.255Z,935.90
2019-05-05T05:40:45.644Z,935.91
2019-05-05T05:41:45.218Z,935.85
2019-05-05T05:42:45.202Z,935.87
2019-05-05T05:43:45.212Z,935.83
2019-05-05T05:44:45.199Z,935.86
2019-05-05T05:45:45.715Z,935.87
2019-05-05T05:46:45.185Z,935.84
2019-05-05T05:47:45.185Z,935.84
2019-05-05T05:48:45.170Z,935.83
2019-05-05T05:49:45.214Z,935.84
2019-05-05T05:50:45.171Z,935.84
2019-05-05T05:51:45.501Z,935.84
2019-05-05T05:52:45.144Z,935.86
2019-05-05T05:53:45.123Z,935.84
2019-05-05T05:54:45.124Z,935.88
2019-05-05T05:55:45.141Z,935.91
2019-05-05T05:56:45.471Z,935.89
2019-05-05T05:57:45.103Z,935.87
2019-05-05T05:58:45.111Z,935.90
2019-05-05T05:59:45.067Z,935.86
2019-05-05T06:00:45.095Z,935.88
2019-05-05T06:01:45.428Z,935.91
2019-05-05T06:02:45.064Z,935.89
2019-05-05T06:03:45.097Z,935.87
2019-05-05T06:04:45.038Z,935.88
2019-05-05T06:05:45.058Z,935.88
2019-05-05T06:06:45.392Z,935.91
2019-05-05T06:07:45.041Z,935.87
2019-05-05T06:08:45.032Z,935.89
2019-05-05T06:09:45.025Z,935.87
2019-05-05T06:10:45.006Z,935.87
2019-05-05T06:11:45.292Z,935.86
2019-05-05T06:12:45.087Z,935.84
2019-05-05T06:13:47.459Z,935.81
2019-05-05T06:14:45.024Z,935.79
2019-05-05T06:15:44.941Z,935.79
2019-05-05T06:16:45.159Z,935.79
2019-05-05T06:17:44.982Z,935.78
2019-05-05T06:18:44.924Z,935.76
2019-05-05T06:19:44.972Z,935.74
2019-05-05T06:20:44.948Z,935.73
2019-05-05T06:21:45.333Z,935.75
2019-05-05T06:22:44.909Z,935.75
2019-05-05T06:23:44.909Z,935.76
2019-05-05T06:24:44.893Z,935.79
2019-05-05T06:25:44.987Z,935.79
2019-05-05T06:26:45.177Z,935.80
2019-05-05T06:27:44.867Z,935.77
2019-05-05T06:28:44.934Z,935.82
2019-05-05T06:29:44.830Z,935.77
2019-05-05T06:30:44.870Z,935.75
2019-05-05T06:31:44.914Z,935.77
2019-05-05T06:32:45.763Z,935.76
2019-05-05T06:33:44.829Z,935.73
2019-05-05T06:34:44.784Z,935.73
2019-05-05T06:35:44.804Z,935.74
2019-05-05T06:36:44.803Z,935.75
2019-05-05T06:37:46.678Z,935.72
2019-05-05T06:38:45.185Z,935.74
2019-05-05T06:39:44.757Z,935.74
2019-05-05T06:40:44.753Z,935.73
2019-05-05T06:41:44.737Z,935.73
2019-05-05T06:42:44.746Z,935.73
2019-05-05T06:43:44.753Z,935.71
2019-05-05T06:44:45.023Z,935.75
2019-05-05T06:45:44.718Z,935.74
2019-05-05T06:46:44.711Z,935.78
2019-05-05T06:47:44.693Z,935.76
2019-05-05T06:48:44.707Z,935.74
2019-05-05T06:49:44.707Z,935.79
2019-05-05T06:50:45.050Z,935.81
2019-05-05T06:51:44.664Z,935.83
2019-05-05T06:52:47.042Z,935.82
2019-05-05T06:53:44.668Z,935.80
2019-05-05T06:54:44.655Z,935.78
2019-05-05T06:55:44.642Z,935.82
2019-05-05T06:56:45.066Z,935.77
2019-05-05T06:57:44.602Z,935.81
2019-05-05T06:58:44.949Z,935.79
2019-05-05T06:59:44.595Z,935.82
2019-05-05T07:00:44.597Z,935.82
2019-05-05T07:01:44.595Z,935.81
2019-05-05T07:02:44.889Z,935.77
2019-05-05T07:03:44.559Z,935.77
2019-05-05T07:04:44.691Z,935.79
2019-05-05T07:05:44.553Z,935.74
2019-05-05T07:06:53.862Z,935.78
2019-05-05T07:07:44.536Z,935.80
2019-05-05T07:08:44.973Z,935.81
2019-05-05T07:09:44.529Z,935.82
2019-05-05T07:10:44.608Z,935.85
2019-05-05T07:11:44.519Z,935.80
2019-05-05T07:12:44.493Z,935.81
2019-05-05T07:13:44.506Z,935.78
2019-05-05T07:14:44.734Z,935.79
2019-05-05T07:15:44.466Z,935.76
2019-05-05T07:16:44.481Z,935.80
2019-05-05T07:17:44.464Z,935.83
2019-05-05T07:18:44.680Z,935.81
2019-05-05T07:19:44.951Z,935.85
2019-05-05T07:20:44.775Z,935.83
2019-05-05T07:21:44.430Z,935.88
2019-05-05T07:22:58.467Z,935.84
2019-05-05T07:23:44.654Z,935.92
2019-05-05T07:24:44.397Z,935.84
2019-05-05T07:25:45.957Z,935.87
2019-05-05T07:26:44.751Z,935.88
2019-05-05T07:27:44.414Z,935.87
2019-05-05T07:28:44.786Z,935.91
2019-05-05T07:29:44.361Z,935.89
2019-05-05T07:30:44.409Z,935.88
2019-05-05T07:31:44.798Z,935.93
2019-05-05T07:32:44.405Z,935.98
2019-05-05T07:33:44.337Z,935.89
2019-05-05T07:34:44.353Z,935.92
2019-05-05T07:35:55.342Z,935.89
2019-05-05T07:36:44.805Z,935.92
2019-05-05T07:37:44.288Z,935.93
2019-05-05T07:38:44.346Z,935.94
2019-05-05T07:39:44.665Z,935.91
2019-05-05T07:40:44.278Z,935.92
2019-05-05T07:41:44.813Z,935.93
2019-05-05T07:42:44.759Z,935.96
2019-05-05T07:43:44.227Z,935.92
2019-05-05T07:44:44.239Z,935.94
2019-05-05T07:45:44.582Z,935.95
2019-05-05T07:46:44.227Z,935.95
2019-05-05T07:47:47.204Z,935.92
2019-05-05T07:48:44.372Z,935.95
2019-05-05T07:49:44.289Z,935.92
2019-05-05T07:50:58.665Z,935.90
2019-05-05T07:51:44.378Z,935.88
2019-05-05T07:52:44.578Z,935.94
2019-05-05T07:53:44.402Z,935.96
2019-05-05T07:54:44.165Z,936.00
2019-05-05T07:55:44.161Z,936.01
2019-05-05T07:56:44.511Z,936.00
2019-05-05T07:57:44.540Z,935.99
2019-05-05T07:58:44.142Z,935.98
2019-05-05T07:59:44.965Z,935.98
2019-05-05T08:00:44.087Z,936.03
2019-05-05T08:01:46.516Z,936.01
2019-05-05T08:02:44.446Z,936.09
2019-05-05T08:03:44.582Z,936.04
2019-05-05T08:04:44.093Z,936.03
2019-05-05T08:05:44.329Z,936.03
2019-05-05T08:06:44.561Z,936.02
2019-05-05T08:07:44.772Z,936.06
2019-05-05T08:08:44.421Z,936.03
2019-05-05T08:09:44.420Z,936.06
2019-05-05T08:10:44.026Z,936.10
2019-05-05T08:11:44.063Z,936.07
2019-05-05T08:12:44.467Z,936.10
2019-05-05T08:13:44.446Z,936.11
2019-05-05T08:14:44.407Z,936.12
2019-05-05T08:15:56.267Z,936.13
2019-05-05T08:16:44.279Z,936.15
2019-05-05T08:17:44.741Z,936.14
2019-05-05T08:18:43.989Z,936.18
2019-05-05T08:19:43.985Z,936.15
2019-05-05T08:20:44.382Z,936.19
2019-05-05T08:21:43.977Z,936.18
2019-05-05T08:22:44.470Z,936.20
2019-05-05T08:23:44.775Z,936.25
2019-05-05T08:24:44.013Z,936.24
2019-05-05T08:25:45.370Z,936.26
2019-05-05T08:26:44.252Z,936.26
2019-05-05T08:27:44.708Z,936.26
2019-05-05T08:28:45.867Z,936.32
2019-05-05T08:29:43.892Z,936.33
2019-05-05T08:30:44.207Z,936.35
2019-05-05T08:31:44.292Z,936.34
2019-05-05T08:32:43.895Z,936.36
2019-05-05T08:33:44.283Z,936.40
2019-05-05T08:34:57.357Z,936.40
2019-05-05T08:35:44.843Z,936.41
2019-05-05T08:36:44.650Z,936.47
2019-05-05T08:37:43.844Z,936.46
2019-05-05T08:38:44.153Z,936.46
2019-05-05T08:39:44.660Z,936.51
2019-05-05T08:40:44.199Z,936.55
2019-05-05T08:41:45.412Z,936.56
2019-05-05T08:42:44.567Z,936.54
2019-05-05T08:43:44.082Z,936.59
2019-05-05T08:44:44.736Z,936.54
2019-05-05T08:45:44.434Z,936.56
2019-05-05T08:46:44.577Z,936.57
2019-05-05T08:47:43.731Z,936.54
2019-05-05T08:48:44.696Z,936.60
2019-05-05T08:49:44.247Z,936.63
2019-05-05T08:50:43.976Z,936.61
2019-05-05T08:51:44.258Z,936.65
2019-05-05T08:52:44.477Z,936.67
2019-05-05T08:53:47.966Z,936.74
2019-05-05T08:54:44.625Z,936.70
2019-05-05T08:55:44.297Z,936.68
2019-05-05T08:56:44.717Z,936.71
2019-05-05T08:57:44.693Z,936.71
2019-05-05T08:58:43.944Z,936.74
2019-05-05T08:59:43.973Z,936.74
2019-05-05T09:00:44.374Z,936.76
2019-05-05T09:01:44.914Z,936.76
2019-05-05T09:02:43.805Z,936.82
2019-05-05T09:03:44.406Z,936.81
2019-05-05T09:04:44.654Z,936.85
2019-05-05T09:05:43.835Z,936.85
2019-05-05T09:06:43.894Z,936.84
2019-05-05T09:07:44.161Z,936.89
2019-05-05T09:08:44.161Z,936.91
2019-05-05T09:09:44.159Z,936.89
2019-05-05T09:10:44.829Z,936.93
2019-05-05T09:11:43.910Z,936.91
2019-05-05T09:12:43.762Z,936.89
2019-05-05T09:13:44.699Z,936.89
2019-05-05T09:14:44.889Z,936.91
2019-05-05T09:15:44.347Z,936.90
2019-05-05T09:16:44.804Z,936.93
2019-05-05T09:17:43.984Z,936.95
2019-05-05T09:18:44.225Z,936.95
2019-05-05T09:19:44.890Z,936.98
2019-05-05T09:20:44.599Z,937.00
2019-05-05T09:21:44.788Z,937.04
2019-05-05T09:22:44.598Z,936.99
2019-05-05T09:23:58.642Z,937.03
2019-05-05T09:24:44.513Z,937.04
2019-05-05T09:25:44.670Z,937.06
2019-05-05T09:26:43.719Z,937.08
2019-05-05T09:27:44.250Z,937.12
2019-05-05T09:28:44.565Z,937.15
2019-05-05T09:29:44.054Z,937.21
2019-05-05T09:30:44.392Z,937.19
2019-05-05T09:31:45.072Z,937.24
2019-05-05T09:32:43.853Z,937.25
2019-05-05T09:33:44.212Z,937.29
2019-05-05T09:34:43.756Z,937.30
2019-05-05T09:35:43.672Z,937.29
2019-05-05T09:36:43.940Z,937.30
2019-05-05T09:37:44.328Z,937.29
2019-05-05T09:38:45.022Z,937.31
2019-05-05T09:39:43.825Z,937.34
2019-05-05T09:40:43.960Z,937.33
2019-05-05T09:41:44.568Z,937.35
2019-05-05T09:42:44.317Z,937.34
2019-05-05T09:43:44.610Z,937.39
2019-05-05T09:44:43.885Z,937.36
2019-05-05T09:45:44.133Z,937.39
2019-05-05T09:46:44.659Z,937.41
2019-05-05T09:47:44.926Z,937.37
2019-05-05T09:48:44.006Z,937.37
2019-05-05T09:49:44.558Z,937.40
2019-05-05T09:50:43.649Z,937.43
2019-05-05T09:51:44.023Z,937.39
2019-05-05T09:52:44.358Z,937.42
2019-05-05T09:53:44.870Z,937.43
2019-05-05T09:54:43.817Z,937.41
2019-05-05T09:55:44.329Z,937.42
2019-05-05T09:56:44.449Z,937.43
2019-05-05T09:57:43.784Z,937.44
2019-05-05T09:58:44.062Z,937.45
2019-05-05T09:59:44.136Z,937.44
2019-05-05T10:00:44.184Z,937.47
2019-05-05T10:01:44.533Z,937.45
2019-05-05T10:02:44.137Z,937.50
2019-05-05T10:03:44.667Z,937.55
2019-05-05T10:04:44.122Z,937.54
2019-05-05T10:05:43.401Z,937.57
2019-05-05T10:06:47.355Z,937.60
2019-05-05T10:07:44.087Z,937.63
2019-05-05T10:08:44.619Z,937.64
2019-05-05T10:09:43.752Z,937.65
2019-05-05T10:10:44.233Z,937.65
2019-05-05T10:11:44.831Z,937.63
2019-05-05T10:12:44.584Z,937.61
2019-05-05T10:13:44.247Z,937.62
2019-05-05T10:14:44.891Z,937.62
2019-05-05T10:15:44.382Z,937.65
2019-05-05T10:16:43.245Z,937.64
2019-05-05T10:17:42.951Z,937.63
2019-05-05T10:18:44.676Z,937.65
2019-05-05T10:19:44.034Z,937.67
2019-05-05T10:20:42.888Z,937.71
2019-05-05T10:21:44.392Z,937.72
2019-05-05T10:22:43.838Z,937.74
2019-05-05T10:23:43.607Z,937.75
2019-05-05T10:24:44.320Z,937.80
2019-05-05T10:25:44.617Z,937.78
2019-05-05T10:26:43.801Z,937.79
2019-05-05T10:27:47.499Z,937.83
2019-05-05T10:28:44.449Z,937.82
2019-05-05T10:29:44.201Z,937.80
2019-05-05T10:30:42.810Z,937.83
2019-05-05T10:31:43.715Z,937.82
2019-05-05T10:32:43.781Z,937.82
2019-05-05T10:33:42.799Z,937.86
2019-05-05T10:34:44.021Z,937.90
2019-05-05T10:35:43.786Z,937.89
2019-05-05T10:36:44.250Z,937.89
2019-05-05T10:37:43.873Z,937.92
2019-05-05T10:38:44.291Z,937.90
2019-05-05T10:39:43.979Z,937.96
2019-05-05T10:40:44.614Z,937.96
2019-05-05T10:41:44.137Z,937.96
2019-05-05T10:42:44.225Z,937.99
2019-05-05T10:43:43.716Z,937.96
2019-05-05T10:44:44.443Z,937.94
2019-05-05T10:45:44.059Z,937.95
2019-05-05T10:46:42.891Z,937.91
2019-05-05T10:47:44.074Z,937.95
2019-05-05T10:48:44.433Z,937.95
2019-05-05T10:49:44.145Z,937.95
2019-05-05T10:50:44.298Z,937.94
2019-05-05T10:51:43.960Z,937.96
2019-05-05T10:52:44.240Z,937.96
2019-05-05T10:53:43.814Z,937.97
2019-05-05T10:54:44.828Z,938.01
2019-05-05T10:55:44.831Z,938.02
2019-05-05T10:56:42.897Z,938.04
2019-05-05T10:57:43.585Z,938.07
2019-05-05T10:58:44.157Z,938.09
2019-05-05T10:59:43.518Z,938.10
2019-05-05T11:00:44.368Z,938.07
2019-05-05T11:01:42.744Z,938.08
2019-05-05T11:02:42.539Z,938.09
2019-05-05T11:03:44.552Z,938.09
2019-05-05T11:04:44.207Z,938.12
2019-05-05T11:05:44.553Z,938.11
2019-05-05T11:06:44.057Z,938.06
2019-05-05T11:07:42.522Z,938.08
2019-05-05T11:08:42.511Z,938.06
2019-05-05T11:09:44.227Z,938.05
2019-05-05T11:10:44.589Z,938.05
2019-05-05T11:11:43.857Z,938.06
2019-05-05T11:12:44.252Z,938.03
2019-05-05T11:13:45.021Z,938.06
2019-05-05T11:14:44.227Z,938.03
2019-05-05T11:15:44.200Z,938.06
2019-05-05T11:16:43.893Z,938.05
2019-05-05T11:17:43.924Z,938.07
2019-05-05T11:18:42.433Z,938.08
2019-05-05T11:19:44.127Z,938.07
2019-05-05T11:20:44.430Z,938.10
2019-05-05T11:21:43.573Z,938.08
2019-05-05T11:22:43.840Z,938.07
2019-05-05T11:23:44.633Z,938.11
2019-05-05T11:24:55.165Z,938.11
2019-05-05T11:25:44.142Z,938.09
2019-05-05T11:26:44.457Z,938.12
2019-05-05T11:27:44.060Z,938.12
2019-05-05T11:28:44.383Z,938.10
2019-05-05T11:29:43.725Z,938.09
2019-05-05T11:30:42.308Z,938.10
2019-05-05T11:31:42.547Z,938.09
2019-05-05T11:32:44.015Z,938.09
2019-05-05T11:33:43.695Z,938.13
2019-05-05T11:34:44.176Z,938.07
2019-05-05T11:35:44.330Z,938.10
2019-05-05T11:36:43.862Z,938.06
2019-05-05T11:37:43.800Z,938.04
2019-05-05T11:38:44.405Z,938.05
2019-05-05T11:39:44.413Z,938.11
2019-05-05T11:40:43.810Z,938.04
2019-05-05T11:41:43.879Z,938.08
2019-05-05T11:42:42.228Z,938.03
2019-05-05T11:43:42.535Z,938.03
2019-05-05T11:44:42.207Z,938.09
2019-05-05T11:45:43.827Z,938.08
2019-05-05T11:46:44.131Z,938.09
2019-05-05T11:47:44.303Z,938.09
2019-05-05T11:48:43.865Z,938.09
2019-05-05T11:49:44.151Z,938.10
2019-05-05T11:50:43.673Z,938.15
2019-05-05T11:51:43.710Z,938.11
2019-05-05T11:52:44.320Z,938.11
2019-05-05T11:53:42.136Z,938.10
2019-05-05T11:54:43.833Z,938.13
2019-05-05T11:55:44.233Z,938.12
2019-05-05T11:56:44.528Z,938.12
2019-05-05T11:57:43.733Z,938.08
2019-05-05T11:58:44.045Z,938.10
2019-05-05T11:59:42.134Z,938.10
2019-05-05T12:00:43.881Z,938.11
2019-05-05T12:01:44.084Z,938.13
2019-05-05T12:02:43.845Z,938.15
2019-05-05T12:03:44.139Z,938.12
2019-05-05T12:04:42.091Z,938.14
2019-05-05T12:05:44.083Z,938.16
2019-05-05T12:06:44.110Z,938.16
2019-05-05T12:07:43.678Z,938.19
2019-05-05T12:08:45.450Z,938.18
2019-05-05T12:09:44.261Z,938.18
2019-05-05T12:10:43.809Z,938.17
2019-05-05T12:11:43.732Z,938.15
2019-05-05T12:12:43.819Z,938.18
2019-05-05T12:13:43.813Z,938.14
2019-05-05T12:14:42.041Z,938.17
2019-05-05T12:15:42.046Z,938.20
2019-05-05T12:16:43.776Z,938.21
2019-05-05T12:17:44.070Z,938.22
2019-05-05T12:18:42.025Z,938.22
2019-05-05T12:19:43.483Z,938.23
2019-05-05T12:20:43.987Z,938.26
2019-05-05T12:21:44.053Z,938.31
2019-05-05T12:22:41.994Z,938.28
2019-05-05T12:23:44.218Z,938.32
2019-05-05T12:24:44.162Z,938.35
2019-05-05T12:25:43.608Z,938.36
2019-05-05T12:26:43.640Z,938.38
2019-05-05T12:27:41.967Z,938.40
2019-05-05T12:28:43.896Z,938.39